createdAt,value
2019-03-20T00:00:41.576Z,90.50
2019-03-20T00:03:08.111Z,90.10
2019-03-20T00:05:34.258Z,88.30
2019-03-20T00:08:00.419Z,88.90
2019-03-20T00:10:27.158Z,90.10
2019-03-20T00:12:53.296Z,90.70
2019-03-20T00:15:19.548Z,90.90
2019-03-20T00:17:45.805Z,90.90
2019-03-20T00:20:12.977Z,91.30
2019-03-20T00:22:39.111Z,90.90
2019-03-20T00:25:07.476Z,90.30
2019-03-20T00:27:33.610Z,89.90
2019-03-20T00:29:59.763Z,91.20
2019-03-20T00:32:26.111Z,91.50
2019-03-20T00:35:00.726Z,91.60
2019-03-20T00:37:21.618Z,91.10
2019-03-20T00:39:47.763Z,91.80
2019-03-20T00:42:13.902Z,91.90
2019-03-20T00:44:40.076Z,91.40
2019-03-20T00:47:06.206Z,91.20
2019-03-20T00:49:32.353Z,91.10
2019-03-20T00:51:58.495Z,90.80
2019-03-20T00:54:24.659Z,91.40
2019-03-20T00:56:50.813Z,91.00
2019-03-20T00:59:18.232Z,91.10
2019-03-20T01:01:44.382Z,91.20
2019-03-20T01:04:10.519Z,89.30
2019-03-20T01:06:36.670Z,90.20
2019-03-20T01:09:05.006Z,90.50
2019-03-20T01:11:31.151Z,91.60
2019-03-20T01:13:57.386Z,92.00
2019-03-20T01:16:23.530Z,90.40
2019-03-20T01:18:49.699Z,90.70
2019-03-20T01:21:16.128Z,91.00
2019-03-20T01:23:42.282Z,92.30
2019-03-20T01:26:08.436Z,92.70
2019-03-20T01:28:34.919Z,91.80
2019-03-20T01:31:01.071Z,90.60
2019-03-20T01:33:27.208Z,90.70
2019-03-20T01:35:53.367Z,90.60
2019-03-20T01:38:19.503Z,91.10
2019-03-20T01:40:45.654Z,91.20
2019-03-20T01:43:11.792Z,90.60
2019-03-20T01:45:38.020Z,90.30
2019-03-20T01:48:04.706Z,91.20
2019-03-20T01:50:30.838Z,91.30
2019-03-20T01:52:57.009Z,92.00
2019-03-20T01:55:23.243Z,91.60
2019-03-20T01:57:49.401Z,92.80
2019-03-20T02:00:15.735Z,92.70
2019-03-20T02:02:42.095Z,92.50
2019-03-20T02:05:08.427Z,92.00
2019-03-20T02:07:34.574Z,92.20
2019-03-20T02:10:00.930Z,92.30
2019-03-20T02:12:27.073Z,91.40
2019-03-20T02:14:53.259Z,92.00
2019-03-20T02:17:19.419Z,92.50
2019-03-20T02:19:45.558Z,92.90
2019-03-20T02:22:11.813Z,93.00
2019-03-20T02:24:37.960Z,93.20
2019-03-20T02:27:04.402Z,93.20
2019-03-20T02:29:30.543Z,92.90
2019-03-20T02:31:56.691Z,91.70
2019-03-20T02:34:23.108Z,91.70
2019-03-20T02:36:49.251Z,91.90
2019-03-20T02:39:15.406Z,91.10
2019-03-20T02:41:41.556Z,91.80
2019-03-20T02:44:07.704Z,92.10
2019-03-20T02:46:33.840Z,91.70
2019-03-20T02:49:00.261Z,92.40
2019-03-20T02:51:26.876Z,92.20
2019-03-20T02:53:53.031Z,91.10
2019-03-20T02:56:19.187Z,92.60
2019-03-20T02:58:45.349Z,91.90
2019-03-20T03:01:11.496Z,92.30
2019-03-20T03:03:37.846Z,91.30
2019-03-20T03:06:07.323Z,91.60
2019-03-20T03:08:32.073Z,91.40
2019-03-20T03:10:58.243Z,92.10
2019-03-20T03:13:24.794Z,91.90
2019-03-20T03:15:50.951Z,92.30
2019-03-20T03:18:17.102Z,93.10
2019-03-20T03:20:43.252Z,93.70
2019-03-20T03:23:09.711Z,92.80
2019-03-20T03:25:35.861Z,93.70
2019-03-20T03:28:02.083Z,93.30
2019-03-20T03:30:28.284Z,93.60
2019-03-20T03:32:54.442Z,93.70
2019-03-20T03:35:20.608Z,93.30
2019-03-20T03:37:46.772Z,93.60
2019-03-20T03:40:15.570Z,93.10
2019-03-20T03:42:41.995Z,93.30
2019-03-20T03:45:10.544Z,93.60
2019-03-20T03:47:36.692Z,93.70
2019-03-20T03:50:04.250Z,93.20
2019-03-20T03:52:30.696Z,93.40
2019-03-20T03:54:56.888Z,93.90
2019-03-20T03:57:23.040Z,94.20
2019-03-20T03:59:49.196Z,93.40
2019-03-20T04:02:15.607Z,93.50
2019-03-20T04:04:41.765Z,93.80
2019-03-20T04:07:07.918Z,93.60
2019-03-20T04:09:34.069Z,93.40
2019-03-20T04:12:15.988Z,93.20
2019-03-20T04:14:42.132Z,93.00
2019-03-20T04:17:21.950Z,92.20
2019-03-20T04:19:48.392Z,92.90
2019-03-20T04:22:14.545Z,92.90
2019-03-20T04:24:40.711Z,92.70
2019-03-20T04:27:06.855Z,92.60
2019-03-20T04:29:33.006Z,92.80
2019-03-20T04:31:59.155Z,92.50
2019-03-20T04:34:25.317Z,92.60
2019-03-20T04:36:51.467Z,92.70
2019-03-20T04:39:17.624Z,92.70
2019-03-20T04:41:44.300Z,92.40
2019-03-20T04:44:10.782Z,92.20
2019-03-20T04:46:36.942Z,92.10
2019-03-20T04:49:03.098Z,92.00
2019-03-20T04:51:29.249Z,91.80
2019-03-20T04:53:55.396Z,91.80
2019-03-20T04:56:21.554Z,92.00
2019-03-20T04:58:48.698Z,91.90
2019-03-20T05:01:15.071Z,91.50
2019-03-20T05:03:41.210Z,91.50
2019-03-20T05:06:07.370Z,91.60
2019-03-20T05:08:33.524Z,91.70
2019-03-20T05:11:00.387Z,91.50
2019-03-20T05:13:26.611Z,91.40
2019-03-20T05:15:52.772Z,91.40
2019-03-20T05:18:18.923Z,91.40
2019-03-20T05:20:45.098Z,91.20
2019-03-20T05:23:11.260Z,91.10
2019-03-20T05:25:37.694Z,91.00
2019-03-20T05:28:03.850Z,91.00
2019-03-20T05:30:30.045Z,91.10
2019-03-20T05:32:56.179Z,91.00
2019-03-20T05:35:22.356Z,90.90
2019-03-20T05:37:48.499Z,91.10
2019-03-20T05:40:15.791Z,91.10
2019-03-20T05:42:42.035Z,90.90
2019-03-20T05:45:11.503Z,91.10
2019-03-20T05:47:37.967Z,91.10
2019-03-20T05:50:07.541Z,90.80
2019-03-20T05:52:34.808Z,90.70
2019-03-20T05:55:00.956Z,90.70
2019-03-20T05:57:27.124Z,90.70
2019-03-20T05:59:53.277Z,90.80
2019-03-20T06:02:19.426Z,90.70
2019-03-20T06:04:45.569Z,90.60
2019-03-20T06:07:21.078Z,90.80
2019-03-20T06:09:40.042Z,90.70
2019-03-20T06:12:06.210Z,90.70
2019-03-20T06:14:32.380Z,90.70
2019-03-20T06:16:58.589Z,90.50
2019-03-20T06:19:25.074Z,90.50
2019-03-20T06:21:51.501Z,90.60
2019-03-20T06:24:17.646Z,90.60
2019-03-20T06:26:44.159Z,90.40
2019-03-20T06:29:10.303Z,90.50
2019-03-20T06:31:36.623Z,90.60
2019-03-20T06:34:02.871Z,90.60
2019-03-20T06:36:29.047Z,90.80
2019-03-20T06:38:55.194Z,90.30
2019-03-20T06:41:21.358Z,90.40
2019-03-20T06:43:47.515Z,90.50
2019-03-20T06:46:13.655Z,90.40
2019-03-20T06:48:39.815Z,90.30
2019-03-20T06:51:05.967Z,90.30
2019-03-20T06:53:32.465Z,90.50
2019-03-20T06:55:58.612Z,90.50
2019-03-20T06:58:25.036Z,90.40
2019-03-20T07:00:55.000Z,90.40
2019-03-20T07:03:57.026Z,90.40
2019-03-20T07:06:26.983Z,90.10
2019-03-20T07:09:04.394Z,90.00
2019-03-20T07:11:34.439Z,90.00
2019-03-20T07:14:00.611Z,90.20
2019-03-20T07:16:26.746Z,90.10
2019-03-20T07:18:52.924Z,90.30
2019-03-20T07:21:19.060Z,90.00
2019-03-20T07:23:45.483Z,90.20
2019-03-20T07:26:11.634Z,90.00
2019-03-20T07:28:37.801Z,89.60
2019-03-20T07:31:14.323Z,88.80
2019-03-20T07:33:32.119Z,88.20
2019-03-20T07:35:58.262Z,87.80
2019-03-20T07:38:24.420Z,88.40
2019-03-20T07:40:50.571Z,87.20
2019-03-20T07:43:16.732Z,86.80
2019-03-20T07:45:43.177Z,87.00
2019-03-20T07:48:09.348Z,86.60
2019-03-20T07:50:35.490Z,86.30
2019-03-20T07:53:01.650Z,85.40
2019-03-20T07:55:27.800Z,85.20
2019-03-20T07:57:53.963Z,84.90
2019-03-20T08:00:20.128Z,85.00
2019-03-20T08:02:46.267Z,84.80
2019-03-20T08:05:12.419Z,84.40
2019-03-20T08:07:38.565Z,83.90
2019-03-20T08:10:08.715Z,83.20
2019-03-20T08:12:34.866Z,83.70
2019-03-20T08:15:01.015Z,82.10
2019-03-20T08:17:27.172Z,80.60
2019-03-20T08:19:53.327Z,80.00
2019-03-20T08:22:19.486Z,79.20
2019-03-20T08:24:45.646Z,79.10
2019-03-20T08:27:11.795Z,79.30
2019-03-20T08:29:37.955Z,78.40
2019-03-20T08:32:04.199Z,78.50
2019-03-20T08:34:30.369Z,79.40
2019-03-20T08:36:56.514Z,79.50
2019-03-20T08:39:22.777Z,79.10
2019-03-20T08:41:49.191Z,78.70
2019-03-20T08:44:15.351Z,79.00
2019-03-20T08:46:41.494Z,78.70
2019-03-20T08:49:07.654Z,78.90
2019-03-20T08:51:33.815Z,79.30
2019-03-20T08:53:59.966Z,78.60
2019-03-20T08:56:26.135Z,78.60
2019-03-20T08:58:52.692Z,78.50
2019-03-20T09:01:28.130Z,77.70
2019-03-20T09:03:47.024Z,77.50
2019-03-20T09:06:13.174Z,77.40
2019-03-20T09:08:39.338Z,77.30
2019-03-20T09:11:05.482Z,77.20
2019-03-20T09:13:31.631Z,77.50
2019-03-20T09:15:57.814Z,77.30
2019-03-20T09:18:23.981Z,77.20
2019-03-20T09:20:50.163Z,77.60
2019-03-20T09:23:16.304Z,77.70
2019-03-20T09:25:42.566Z,77.20
2019-03-20T09:28:08.734Z,77.30
2019-03-20T09:30:35.199Z,77.10
2019-03-20T09:33:01.343Z,77.00
2019-03-20T09:35:27.503Z,77.20
2019-03-20T09:37:53.670Z,76.90
2019-03-20T09:40:24.084Z,76.00
2019-03-20T09:42:50.278Z,76.30
2019-03-20T09:45:17.540Z,75.80
2019-03-20T09:47:44.124Z,75.00
2019-03-20T09:50:15.476Z,74.30
2019-03-20T09:52:41.798Z,74.80
2019-03-20T09:55:10.107Z,74.90
2019-03-20T09:57:36.371Z,74.30
2019-03-20T10:00:06.339Z,74.20
2019-03-20T10:02:32.494Z,74.00
2019-03-20T10:04:58.663Z,74.50
2019-03-20T10:07:26.338Z,74.10
2019-03-20T10:09:52.484Z,73.80
2019-03-20T10:12:18.636Z,73.50
2019-03-20T10:14:44.785Z,73.40
2019-03-20T10:17:10.954Z,73.80
2019-03-20T10:19:37.109Z,73.30
2019-03-20T10:22:03.273Z,73.70
2019-03-20T10:24:30.508Z,72.70
2019-03-20T10:26:56.666Z,72.80
2019-03-20T10:29:23.115Z,72.70
2019-03-20T10:31:49.266Z,72.70
2019-03-20T10:34:15.406Z,72.40
2019-03-20T10:36:41.567Z,72.80
2019-03-20T10:39:08.055Z,73.10
2019-03-20T10:41:34.286Z,73.10
2019-03-20T10:44:00.440Z,73.60
2019-03-20T10:46:26.601Z,72.80
2019-03-20T10:48:52.749Z,72.80
2019-03-20T10:51:19.175Z,73.00
2019-03-20T10:53:46.427Z,72.50
2019-03-20T10:56:13.056Z,72.50
2019-03-20T10:58:39.281Z,72.40
2019-03-20T11:01:05.533Z,72.00
2019-03-20T11:03:31.694Z,72.10
2019-03-20T11:05:57.848Z,72.10
2019-03-20T11:08:25.098Z,71.40
2019-03-20T11:10:51.558Z,72.20
2019-03-20T11:13:17.726Z,71.70
2019-03-20T11:15:43.867Z,71.70
2019-03-20T11:18:10.026Z,71.30
2019-03-20T11:20:36.186Z,71.40
2019-03-20T11:23:02.346Z,70.60
2019-03-20T11:25:28.705Z,70.30
2019-03-20T11:27:54.860Z,69.60
2019-03-20T11:30:26.280Z,69.50
2019-03-20T11:32:52.632Z,70.20
2019-03-20T11:35:18.987Z,70.10
2019-03-20T11:37:45.148Z,69.70
2019-03-20T11:40:14.507Z,68.10
2019-03-20T11:42:41.462Z,67.30
2019-03-20T11:45:09.022Z,67.30
2019-03-20T11:47:35.170Z,67.20
2019-03-20T11:50:02.847Z,67.30
2019-03-20T11:52:29.011Z,66.80
2019-03-20T11:54:55.466Z,66.20
2019-03-20T11:57:21.785Z,66.30
2019-03-20T11:59:48.085Z,66.20
2019-03-20T12:02:14.259Z,66.40
2019-03-20T12:04:40.412Z,65.90
2019-03-20T12:07:06.562Z,66.50
2019-03-20T12:09:40.785Z,66.80
2019-03-20T12:12:00.814Z,66.90
2019-03-20T12:14:26.962Z,66.20
2019-03-20T12:16:53.127Z,66.80
2019-03-20T12:19:19.290Z,66.70
2019-03-20T12:21:45.437Z,67.10
2019-03-20T12:24:11.591Z,66.80
2019-03-20T12:26:37.735Z,66.30
2019-03-20T12:29:03.919Z,66.10
2019-03-20T12:31:30.063Z,66.80
2019-03-20T12:33:56.263Z,67.40
2019-03-20T12:36:22.407Z,67.90
2019-03-20T12:38:48.684Z,68.10
2019-03-20T12:41:14.830Z,67.80
2019-03-20T12:43:41.255Z,67.50
2019-03-20T12:46:07.399Z,67.30
2019-03-20T12:48:33.563Z,67.80
2019-03-20T12:50:59.707Z,67.10
2019-03-20T12:53:33.748Z,66.10
2019-03-20T12:56:00.185Z,66.40
2019-03-20T12:58:26.355Z,67.40
2019-03-20T13:00:54.384Z,67.30
2019-03-20T13:03:20.563Z,67.90
2019-03-20T13:05:46.716Z,67.70
2019-03-20T13:08:12.894Z,67.30
2019-03-20T13:10:39.305Z,66.90
2019-03-20T13:13:05.581Z,66.10
2019-03-20T13:15:33.537Z,67.10
2019-03-20T13:17:59.875Z,66.90
2019-03-20T13:20:26.047Z,67.10
2019-03-20T13:22:56.014Z,67.20
2019-03-20T13:25:22.178Z,66.40
2019-03-20T13:27:48.347Z,66.50
2019-03-20T13:30:33.689Z,66.60
2019-03-20T13:32:59.915Z,66.40
2019-03-20T13:35:26.197Z,66.50
2019-03-20T13:37:52.347Z,66.30
2019-03-20T13:40:18.527Z,66.90
2019-03-20T13:42:44.735Z,66.60
2019-03-20T13:45:15.985Z,66.50
2019-03-20T13:47:42.146Z,67.40
2019-03-20T13:50:10.777Z,66.40
2019-03-20T13:52:37.354Z,66.90
2019-03-20T13:55:06.015Z,66.10
2019-03-20T13:57:32.170Z,66.50
2019-03-20T13:59:58.387Z,66.70
2019-03-20T14:02:24.535Z,66.60
2019-03-20T14:04:50.725Z,67.90
2019-03-20T14:07:16.887Z,66.60
2019-03-20T14:09:43.033Z,67.70
2019-03-20T14:12:09.288Z,68.10
2019-03-20T14:14:35.452Z,68.90
2019-03-20T14:17:01.605Z,69.80
2019-03-20T14:19:27.771Z,70.40
2019-03-20T14:21:53.934Z,70.00
2019-03-20T14:24:20.085Z,70.00
2019-03-20T14:26:46.290Z,70.00
2019-03-20T14:29:12.449Z,70.80
2019-03-20T14:31:38.934Z,71.40
2019-03-20T14:34:05.083Z,70.70
2019-03-20T14:36:31.266Z,70.50
2019-03-20T14:38:58.512Z,70.30
2019-03-20T14:41:24.670Z,70.40
2019-03-20T14:43:50.820Z,70.50
2019-03-20T14:46:17.332Z,70.30
2019-03-20T14:48:43.767Z,69.20
2019-03-20T14:51:09.939Z,69.80
2019-03-20T14:53:36.099Z,70.10
2019-03-20T14:56:02.370Z,69.30
2019-03-20T14:58:28.519Z,69.40
2019-03-20T15:00:55.033Z,70.20
2019-03-20T15:03:21.197Z,69.30
2019-03-20T15:05:47.368Z,69.60
2019-03-20T15:08:13.535Z,70.40
2019-03-20T15:10:45.917Z,69.50
2019-03-20T15:13:07.793Z,70.50
2019-03-20T15:15:49.488Z,71.40
2019-03-20T15:18:15.910Z,70.90
2019-03-20T15:20:42.075Z,70.60
2019-03-20T15:23:08.261Z,69.90
2019-03-20T15:25:34.611Z,70.80
2019-03-20T15:28:00.803Z,70.70
2019-03-20T15:30:29.585Z,71.00
2019-03-20T15:32:55.744Z,71.70
2019-03-20T15:35:21.900Z,71.50
2019-03-20T15:37:49.327Z,72.00
2019-03-20T15:40:17.186Z,72.50
2019-03-20T15:42:44.776Z,72.10
2019-03-20T15:45:16.229Z,72.00
2019-03-20T15:47:43.005Z,71.70
2019-03-20T15:50:13.007Z,72.20
2019-03-20T15:52:39.163Z,72.10
2019-03-20T15:55:23.195Z,72.10
2019-03-20T15:57:49.569Z,72.40
2019-03-20T16:00:17.835Z,71.90
2019-03-20T16:02:44.611Z,71.80
2019-03-20T16:05:11.078Z,71.80
2019-03-20T16:07:37.234Z,72.80
2019-03-20T16:10:07.207Z,72.40
2019-03-20T16:12:33.676Z,72.90
2019-03-20T16:14:59.935Z,71.70
2019-03-20T16:17:26.099Z,71.40
2019-03-20T16:19:52.246Z,71.70
2019-03-20T16:22:18.471Z,72.00
2019-03-20T16:24:44.636Z,72.50
2019-03-20T16:27:10.782Z,73.40
2019-03-20T16:29:36.954Z,72.40
2019-03-20T16:32:03.136Z,72.50
2019-03-20T16:34:29.293Z,72.10
2019-03-20T16:36:55.433Z,72.30
2019-03-20T16:39:21.614Z,72.50
2019-03-20T16:41:48.065Z,73.30
2019-03-20T16:44:14.232Z,73.40
2019-03-20T16:46:40.404Z,73.40
2019-03-20T16:49:06.693Z,73.20
2019-03-20T16:51:33.018Z,73.70
2019-03-20T16:53:59.279Z,73.90
2019-03-20T16:56:25.460Z,73.50
2019-03-20T16:58:51.714Z,73.50
2019-03-20T17:01:17.899Z,73.40
2019-03-20T17:03:44.059Z,73.80
2019-03-20T17:06:10.223Z,74.00
2019-03-20T17:08:36.398Z,74.40
2019-03-20T17:11:02.962Z,75.00
2019-03-20T17:13:29.119Z,75.50
2019-03-20T17:15:55.302Z,75.60
2019-03-20T17:18:21.483Z,75.20
2019-03-20T17:20:47.642Z,74.80
2019-03-20T17:23:14.122Z,75.80
2019-03-20T17:25:40.287Z,75.70
2019-03-20T17:28:06.649Z,76.40
2019-03-20T17:30:43.851Z,76.40
2019-03-20T17:33:10.022Z,76.80
2019-03-20T17:35:36.321Z,77.10
2019-03-20T17:38:03.390Z,77.50
2019-03-20T17:40:29.554Z,77.80
2019-03-20T17:42:56.351Z,78.20
2019-03-20T17:45:24.851Z,78.40
2019-03-20T17:47:51.007Z,78.40
2019-03-20T17:50:24.011Z,78.60
2019-03-20T17:52:50.479Z,78.60
2019-03-20T17:55:16.654Z,79.10
2019-03-20T17:57:42.811Z,79.20
2019-03-20T18:00:12.817Z,79.90
2019-03-20T18:02:39.074Z,80.60
2019-03-20T18:05:07.563Z,79.90
2019-03-20T18:07:33.711Z,80.60
2019-03-20T18:09:59.971Z,80.90
2019-03-20T18:12:27.131Z,80.80
2019-03-20T18:14:53.620Z,81.10
2019-03-20T18:17:19.825Z,81.90
2019-03-20T18:19:46.321Z,82.60
2019-03-20T18:22:12.812Z,82.90
2019-03-20T18:24:39.331Z,83.50
2019-03-20T18:27:05.497Z,83.70
2019-03-20T18:29:31.666Z,83.80
2019-03-20T18:31:57.859Z,83.20
2019-03-20T18:34:24.093Z,83.90
2019-03-20T18:36:51.147Z,84.80
2019-03-20T18:39:17.519Z,85.10
2019-03-20T18:41:43.825Z,84.60
2019-03-20T18:44:10.069Z,84.50
2019-03-20T18:46:36.237Z,85.20
2019-03-20T18:49:02.492Z,86.30
2019-03-20T18:51:28.990Z,86.80
2019-03-20T18:53:55.129Z,86.60
2019-03-20T18:56:22.504Z,87.30
2019-03-20T18:58:48.655Z,86.80
2019-03-20T19:01:14.824Z,87.30
2019-03-20T19:03:43.607Z,88.10
2019-03-20T19:06:16.366Z,88.50
2019-03-20T19:08:42.633Z,88.10
2019-03-20T19:11:08.904Z,88.30
2019-03-20T19:13:35.185Z,88.60
2019-03-20T19:16:01.362Z,88.90
2019-03-20T19:18:27.647Z,88.80
2019-03-20T19:20:53.784Z,89.20
2019-03-20T19:23:19.940Z,89.60
2019-03-20T19:25:46.403Z,89.50
2019-03-20T19:28:12.571Z,89.70
2019-03-20T19:30:38.718Z,89.80
2019-03-20T19:33:05.112Z,89.70
2019-03-20T19:35:31.552Z,89.40
2019-03-20T19:37:57.786Z,88.50
2019-03-20T19:40:24.587Z,88.30
2019-03-20T19:42:50.760Z,89.30
2019-03-20T19:45:17.661Z,88.90
2019-03-20T19:47:45.037Z,88.30
2019-03-20T19:50:15.452Z,88.50
2019-03-20T19:52:41.820Z,87.80
2019-03-20T19:55:10.182Z,87.30
2019-03-20T19:57:36.703Z,87.70
2019-03-20T20:00:14.843Z,88.00
2019-03-20T20:02:41.027Z,88.40
2019-03-20T20:05:15.795Z,87.20
2019-03-20T20:07:37.293Z,87.80
2019-03-20T20:10:06.512Z,88.10
2019-03-20T20:12:32.713Z,88.30
2019-03-20T20:14:59.863Z,88.60
2019-03-20T20:17:26.027Z,88.90
2019-03-20T20:19:52.242Z,88.80
2019-03-20T20:22:18.402Z,88.90
2019-03-20T20:24:44.820Z,89.60
2019-03-20T20:27:11.295Z,89.70
2019-03-20T20:29:37.457Z,90.00
2019-03-20T20:32:03.603Z,90.40
2019-03-20T20:34:29.787Z,89.80
2019-03-20T20:36:55.928Z,89.90
2019-03-20T20:39:22.103Z,89.20
2019-03-20T20:41:48.569Z,88.80
2019-03-20T20:44:14.726Z,87.90
2019-03-20T20:46:40.875Z,88.70
2019-03-20T20:49:07.030Z,89.20
2019-03-20T20:51:33.174Z,89.80
2019-03-20T20:53:59.330Z,89.30
2019-03-20T20:56:26.027Z,89.80
2019-03-20T20:58:52.190Z,90.10
2019-03-20T21:01:18.338Z,90.80
2019-03-20T21:03:44.502Z,90.30
2019-03-20T21:06:10.649Z,90.00
2019-03-20T21:08:37.818Z,89.60
2019-03-20T21:11:04.062Z,90.20
2019-03-20T21:13:30.235Z,90.20
2019-03-20T21:15:56.378Z,90.70
2019-03-20T21:18:41.405Z,90.80
2019-03-20T21:21:07.550Z,91.10
2019-03-20T21:23:57.237Z,91.10
2019-03-20T21:26:30.022Z,91.10
2019-03-20T21:29:23.404Z,91.30
2019-03-20T21:31:53.361Z,91.40
2019-03-20T21:34:52.634Z,91.70
2019-03-20T21:37:54.417Z,91.60
2019-03-20T21:40:20.570Z,91.40
2019-03-20T21:43:13.294Z,91.60
2019-03-20T21:46:10.554Z,91.70
2019-03-20T21:48:36.707Z,91.90
2019-03-20T21:51:13.425Z,91.90
2019-03-20T21:54:07.175Z,92.10
2019-03-20T21:56:37.250Z,92.00
2019-03-20T21:59:40.270Z,92.30
2019-03-20T22:02:21.914Z,92.40
2019-03-20T22:04:48.327Z,92.30
2019-03-20T22:07:14.490Z,92.40
2019-03-20T22:09:53.514Z,91.80
2019-03-20T22:12:32.759Z,92.20
2019-03-20T22:15:02.771Z,92.80
2019-03-20T22:17:35.615Z,92.80
2019-03-20T22:20:05.571Z,93.00
2019-03-20T22:22:54.085Z,92.60
2019-03-20T22:25:36.631Z,91.70
2019-03-20T22:28:23.402Z,92.40
2019-03-20T22:30:49.610Z,92.60
2019-03-20T22:33:53.419Z,92.70
2019-03-20T22:36:19.670Z,92.90
2019-03-20T22:39:09.434Z,91.20
2019-03-20T22:41:54.785Z,92.10
2019-03-20T22:44:22.078Z,92.50
2019-03-20T22:47:15.357Z,91.80
2019-03-20T22:50:03.108Z,92.40
2019-03-20T22:52:48.762Z,92.70
2019-03-20T22:55:48.783Z,92.80
2019-03-20T22:58:24.818Z,92.90
2019-03-20T23:00:57.071Z,92.10
2019-03-20T23:03:34.818Z,92.20
2019-03-20T23:06:01.487Z,92.20
2019-03-20T23:08:27.646Z,92.50
2019-03-20T23:10:53.791Z,92.60
2019-03-20T23:13:20.438Z,92.90
2019-03-20T23:15:47.482Z,93.10
2019-03-20T23:18:13.650Z,93.30
2019-03-20T23:20:39.795Z,93.40
2019-03-20T23:23:05.965Z,93.30
2019-03-20T23:25:32.508Z,92.20
2019-03-20T23:27:59.769Z,92.70
2019-03-20T23:30:28.138Z,92.90
2019-03-20T23:32:54.683Z,92.60
2019-03-20T23:35:20.834Z,92.70
2019-03-20T23:37:46.982Z,93.20
2019-03-20T23:40:15.251Z,93.20
2019-03-20T23:42:44.010Z,92.80
2019-03-20T23:45:12.774Z,93.50
2019-03-20T23:47:42.819Z,93.50
2019-03-20T23:50:10.387Z,93.40
2019-03-20T23:52:36.540Z,93.80
2019-03-20T23:55:06.921Z,93.90
2019-03-20T23:57:33.061Z,93.60
2019-03-20T23:59:59.214Z,93.10
